Terminal Aerodrome Forecast
Issued by NWS

Home | Current Version | Previous Version | Text Only | Print | Product List | Glossary On
Versions: 1 2 3 4 5 6 7 8 9 10 11 12 13 14 15 16 17 18 19 20 21
000
FTUS43 KAPX 172338
TAFTVC
TAF
KTVC 172338Z 1800/1824 13005KT P6SM OVC009
     FM180300 VRB03KT 5SM BR OVC007
     FM180500 00000KT 3SM BR OVC005
     FM181400 22007KT 6SM BR OVC009
     FM181700 23007KT P6SM OVC015=

USA.gov is the U.S. government's official web portal to all federal, state and local government web resources and services.